Time;durP1;ratioP1;P1;durP2;ratioP2;P2;SDS_P1;SDS_P2;PMS_P1;PMS_P2;Temp;Humidity;BMP_temperature;BMP_pressure;BME280_temperature;BME280_humidity;BME280_pressure;Samples;Min_cycle;Max_cycle;Signal;HPM_P1;HPM_P2
2022/06/25 00:00:15;;;;;;;10.43;9.63;;;17.10;99.90;;;;;;5053386;28;20454;-65
2022/06/25 00:02:43;;;;;;;10.57;9.83;;;17.20;99.90;;;;;;5050234;28;20459;-65
2022/06/25 00:05:32;;;;;;;11.23;10.33;;;17.20;99.90;;;;;;5053742;28;20554;-66
2022/06/25 00:08:00;;;;;;;16.40;11.00;;;17.20;99.90;;;;;;5059717;28;20452;-66
2022/06/25 00:10:27;;;;;;;9.60;9.00;;;17.20;99.90;;;;;;5052383;28;20491;-66
2022/06/25 00:12:54;;;;;;;9.17;8.57;;;17.30;99.90;;;;;;5051633;28;20494;-66
2022/06/25 00:15:23;;;;;;;9.20;8.50;;;17.30;99.90;;;;;;5053425;28;20459;-64
2022/06/25 00:17:50;;;;;;;9.63;8.63;;;17.30;99.90;;;;;;5051231;28;20455;-66
2022/06/25 00:20:18;;;;;;;9.20;8.63;;;17.40;99.90;;;;;;5053926;28;20477;-66
2022/06/25 00:22:46;;;;;;;9.37;8.57;;;17.40;99.90;;;;;;5053015;28;20491;-65
2022/06/25 00:25:13;;;;;;;9.67;8.83;;;17.40;99.90;;;;;;5058186;28;20974;-65
2022/06/25 00:27:40;;;;;;;9.03;8.53;;;17.30;99.90;;;;;;5053048;28;20455;-67
2022/06/25 00:30:08;;;;;;;8.13;7.53;;;17.40;99.90;;;;;;5050214;28;20463;-65
2022/06/25 00:32:36;;;;;;;9.00;8.20;;;17.40;99.90;;;;;;5055398;28;20480;-65
2022/06/25 00:35:04;;;;;;;10.33;8.33;;;17.40;99.90;;;;;;5055126;28;20463;-65
2022/06/25 00:37:33;;;;;;;10.60;8.37;;;17.40;99.90;;;;;;5058873;28;20470;-67
2022/06/25 00:40:01;;;;;;;9.67;8.90;;;17.40;99.90;;;;;;5056674;28;20479;-66
2022/06/25 00:42:28;;;;;;;22.30;8.77;;;17.40;99.90;;;;;;5055116;28;20961;-68
2022/06/25 00:44:55;;;;;;;8.70;8.20;;;17.30;99.90;;;;;;5055850;28;20463;-69
2022/06/25 00:47:23;;;;;;;9.20;8.60;;;17.40;99.90;;;;;;5055422;28;20813;-68
2022/06/25 00:49:50;;;;;;;9.50;8.70;;;17.30;99.90;;;;;;5055257;28;20480;-68
2022/06/25 00:52:18;;;;;;;11.37;9.70;;;17.40;99.90;;;;;;5060052;28;20467;-68
2022/06/25 00:54:54;;;;;;;10.80;9.90;;;17.40;99.90;;;;;;5056512;28;20471;-68
2022/06/25 00:57:24;;;;;;;9.90;9.20;;;17.30;99.90;;;;;;5055230;28;20859;-67
2022/06/25 00:59:51;;;;;;;9.57;8.87;;;17.40;99.90;;;;;;5053439;28;20463;-66
2022/06/25 01:02:33;;;;;;;10.33;9.43;;;17.40;99.90;;;;;;5052916;28;20467;-65
2022/06/25 01:05:01;;;;;;;10.10;9.40;;;17.40;99.90;;;;;;5054968;28;20478;-65
2022/06/25 01:07:27;;;;;;;8.97;8.27;;;17.40;99.90;;;;;;5054052;28;20849;-66
2022/06/25 01:09:57;;;;;;;11.30;10.40;;;17.40;99.90;;;;;;5053301;28;20486;-66
2022/06/25 01:12:24;;;;;;;9.53;8.63;;;17.40;99.90;;;;;;5052237;28;20828;-67
2022/06/25 01:15:01;;;;;;;9.90;8.90;;;17.40;99.90;;;;;;5051188;28;20473;-67
2022/06/25 01:17:29;;;;;;;9.33;8.60;;;17.30;99.90;;;;;;5053130;28;20509;-65
2022/06/25 01:19:56;;;;;;;10.00;9.00;;;17.30;99.90;;;;;;5056481;28;20834;-66
2022/06/25 01:22:25;;;;;;;9.70;9.10;;;17.30;99.90;;;;;;5056606;28;20504;-66
2022/06/25 01:24:51;;;;;;;10.47;9.53;;;17.30;99.90;;;;;;5058671;28;20456;-67
2022/06/25 01:27:18;;;;;;;9.67;8.87;;;17.30;99.90;;;;;;5053043;28;20471;-66
2022/06/25 01:29:47;;;;;;;9.47;8.80;;;17.30;99.90;;;;;;5056475;28;20512;-65
2022/06/25 01:32:13;;;;;;;9.43;9.03;;;17.30;99.90;;;;;;5056311;28;20544;-66
2022/06/25 01:34:41;;;;;;;9.53;8.93;;;17.40;99.90;;;;;;5056371;28;20487;-66
2022/06/25 01:37:08;;;;;;;10.40;9.80;;;17.40;99.90;;;;;;5061220;28;20459;-67
2022/06/25 01:39:36;;;;;;;9.77;9.27;;;17.30;99.90;;;;;;5056378;28;20470;-66
2022/06/25 01:42:04;;;;;;;9.80;9.30;;;17.30;99.90;;;;;;5054646;28;20805;-66
2022/06/25 01:44:31;;;;;;;9.70;9.10;;;17.30;99.90;;;;;;5050232;28;20563;-67
2022/06/25 01:46:58;;;;;;;10.73;9.80;;;17.30;99.90;;;;;;5054456;28;20467;-66
2022/06/25 01:49:26;;;;;;;10.27;9.67;;;17.20;99.90;;;;;;5053167;28;20467;-67
2022/06/25 01:51:53;;;;;;;10.67;9.57;;;17.20;99.90;;;;;;5055545;28;20466;-66
2022/06/25 01:54:20;;;;;;;10.00;9.30;;;17.10;99.90;;;;;;5049931;28;20495;-66
2022/06/25 01:56:49;;;;;;;10.13;9.43;;;17.00;99.90;;;;;;5055727;28;20819;-67
2022/06/25 01:59:17;;;;;;;12.33;10.67;;;17.00;99.90;;;;;;5055869;28;20466;-66
2022/06/25 02:01:44;;;;;;;9.90;9.30;;;17.00;99.90;;;;;;5060801;28;20459;-67
2022/06/25 02:04:13;;;;;;;10.80;10.10;;;17.00;99.90;;;;;;5054426;28;20461;-66
2022/06/25 02:06:40;;;;;;;10.17;9.67;;;17.00;99.90;;;;;;5052899;28;20477;-66
2022/06/25 02:09:07;;;;;;;11.00;10.20;;;17.10;99.90;;;;;;5055077;28;20487;-66
2022/06/25 02:11:35;;;;;;;9.97;8.97;;;17.10;99.90;;;;;;5049803;28;20460;-66
2022/06/25 02:14:03;;;;;;;10.17;9.27;;;17.10;99.90;;;;;;5058674;28;20866;-67
2022/06/25 02:16:30;;;;;;;10.03;9.53;;;17.10;99.90;;;;;;5058909;28;20473;-67
2022/06/25 02:18:57;;;;;;;11.20;10.30;;;16.90;99.90;;;;;;5057310;28;20482;-66
2022/06/25 02:21:24;;;;;;;10.87;9.73;;;16.90;99.90;;;;;;5056703;28;20464;-66
2022/06/25 02:23:51;;;;;;;10.17;9.37;;;16.90;99.90;;;;;;5049735;28;20488;-66
2022/06/25 02:26:18;;;;;;;10.70;10.00;;;17.00;99.90;;;;;;5055579;28;20880;-67
2022/06/25 02:28:45;;;;;;;10.07;9.47;;;16.90;99.90;;;;;;5053480;28;20471;-66
2022/06/25 02:31:14;;;;;;;9.60;9.00;;;16.80;99.90;;;;;;5057986;28;20803;-67
2022/06/25 02:33:41;;;;;;;11.23;10.10;;;16.70;99.90;;;;;;5055599;28;20487;-66
2022/06/25 02:36:09;;;;;;;9.97;9.37;;;16.60;99.90;;;;;;5061525;28;20468;-66
2022/06/25 02:38:35;;;;;;;11.63;10.90;;;16.60;99.90;;;;;;5058340;28;20505;-67
2022/06/25 02:41:02;;;;;;;12.10;11.27;;;16.50;99.90;;;;;;5051495;28;20475;-66
2022/06/25 02:43:29;;;;;;;12.10;11.40;;;16.40;99.90;;;;;;5060758;28;20741;-66
2022/06/25 02:45:56;;;;;;;11.43;10.83;;;16.30;99.90;;;;;;5054219;28;20462;-68
2022/06/25 02:48:24;;;;;;;12.53;11.60;;;16.30;99.90;;;;;;5053615;28;20468;-67
2022/06/25 02:50:52;;;;;;;13.47;12.10;;;16.20;99.90;;;;;;5057261;28;20462;-67
2022/06/25 02:53:19;;;;;;;12.63;11.90;;;16.20;99.90;;;;;;5058996;28;20985;-68
2022/06/25 03:01:17;;;;;;;12.60;11.30;;;16.10;99.90;;;;;;5056918;28;20458;-67
2022/06/25 03:03:45;;;;;;;12.87;11.97;;;16.20;99.90;;;;;;5053212;28;20470;-66
2022/06/25 03:06:12;;;;;;;13.00;11.67;;;16.20;99.90;;;;;;5057294;28;20476;-66
2022/06/25 03:08:39;;;;;;;15.33;12.10;;;16.20;99.90;;;;;;5054996;28;20985;-66
2022/06/25 03:11:08;;;;;;;12.83;12.00;;;16.20;99.90;;;;;;5049414;28;20715;-67
2022/06/25 03:13:36;;;;;;;12.27;11.47;;;16.20;99.90;;;;;;5052109;28;20531;-67
2022/06/25 03:16:04;;;;;;;14.53;13.03;;;16.20;99.90;;;;;;5055889;28;20816;-66
2022/06/25 03:18:31;;;;;;;13.93;12.90;;;16.20;99.90;;;;;;5055874;28;20466;-66
2022/06/25 03:21:00;;;;;;;12.60;11.70;;;16.20;99.90;;;;;;5054355;28;20462;-67
2022/06/25 03:23:27;;;;;;;17.10;11.97;;;16.20;99.90;;;;;;5049153;28;21147;-67
2022/06/25 03:25:54;;;;;;;15.23;14.03;;;16.10;99.90;;;;;;5053396;28;20471;-67
2022/06/25 03:28:21;;;;;;;13.70;12.60;;;16.10;99.90;;;;;;5056333;28;20472;-66
2022/06/25 03:30:48;;;;;;;13.27;12.10;;;16.10;99.90;;;;;;5047581;28;20468;-67
2022/06/25 03:33:15;;;;;;;12.90;12.00;;;16.10;99.90;;;;;;5051304;28;20491;-67
2022/06/25 03:35:42;;;;;;;13.30;12.17;;;16.00;99.90;;;;;;5055322;28;20970;-66
2022/06/25 03:38:11;;;;;;;14.50;13.40;;;16.00;99.90;;;;;;5052794;28;20463;-67
2022/06/25 03:40:38;;;;;;;13.20;12.20;;;16.10;99.90;;;;;;5055310;28;20897;-66
2022/06/25 03:43:05;;;;;;;14.00;12.63;;;16.20;99.90;;;;;;5054694;28;20470;-65
2022/06/25 03:45:31;;;;;;;13.90;12.90;;;16.20;99.90;;;;;;5057492;28;20978;-66
2022/06/25 03:47:58;;;;;;;13.40;12.10;;;16.20;99.90;;;;;;5053148;28;20452;-66
2022/06/25 03:50:25;;;;;;;13.10;12.10;;;16.20;99.90;;;;;;5053859;28;20547;-66
2022/06/25 03:52:52;;;;;;;13.43;12.30;;;16.10;99.90;;;;;;5052386;28;20836;-66
2022/06/25 03:55:21;;;;;;;12.67;11.77;;;16.10;99.90;;;;;;5056840;28;20590;-65
2022/06/25 03:57:48;;;;;;;13.10;12.07;;;16.10;99.90;;;;;;5051814;28;20459;-65
2022/06/25 04:00:16;;;;;;;12.80;11.73;;;16.20;99.90;;;;;;5057506;28;20946;-66
2022/06/25 04:02:42;;;;;;;12.80;11.90;;;16.20;99.90;;;;;;5051354;28;20471;-67
2022/06/25 04:05:09;;;;;;;12.50;11.03;;;16.30;99.90;;;;;;5055853;28;21331;-66
2022/06/25 04:07:37;;;;;;;12.60;11.57;;;16.30;99.90;;;;;;5028086;28;20570;-67
2022/06/25 04:10:05;;;;;;;13.10;11.77;;;16.40;99.90;;;;;;5026506;28;20483;-67
2022/06/25 04:12:33;;;;;;;12.63;11.63;;;16.50;99.90;;;;;;5026548;28;20471;-67
2022/06/25 04:15:00;;;;;;;15.97;11.30;;;16.50;99.90;;;;;;5027860;28;20507;-68
2022/06/25 04:17:27;;;;;;;11.47;10.57;;;16.60;99.90;;;;;;5028920;28;21001;-67
2022/06/25 04:19:54;;;;;;;12.50;11.30;;;16.70;99.90;;;;;;5028213;28;20499;-66
2022/06/25 04:22:21;;;;;;;11.87;10.50;;;16.70;99.90;;;;;;5028709;28;20478;-66
2022/06/25 04:24:48;;;;;;;12.13;11.03;;;16.70;99.90;;;;;;5028175;28;20452;-66
2022/06/25 04:29:56;;;;;;;12.10;10.90;;;16.80;99.90;;;;;;5025892;28;20520;-67
2022/06/25 04:32:23;;;;;;;11.83;11.13;;;16.90;99.90;;;;;;5027452;28;20471;-66
2022/06/25 04:34:50;;;;;;;11.63;10.57;;;17.00;99.90;;;;;;5027962;28;20494;-67
2022/06/25 04:37:17;;;;;;;12.90;10.73;;;17.00;99.90;;;;;;5026971;28;20470;-66
2022/06/25 04:39:44;;;;;;;11.87;10.53;;;17.10;99.90;;;;;;5028229;28;20468;-66
2022/06/25 04:42:11;;;;;;;13.60;11.10;;;17.10;99.90;;;;;;5026903;28;20490;-67
2022/06/25 04:44:37;;;;;;;13.03;11.27;;;17.20;99.90;;;;;;5026707;28;20466;-67
2022/06/25 04:47:06;;;;;;;10.80;9.47;;;17.30;99.90;;;;;;5028100;28;20479;-67
2022/06/25 04:49:32;;;;;;;14.63;9.87;;;17.40;99.90;;;;;;5028953;28;20520;-66
2022/06/25 04:51:59;;;;;;;21.20;10.03;;;17.50;99.90;;;;;;5028846;28;20452;-67
2022/06/25 04:54:26;;;;;;;14.77;10.40;;;17.70;99.90;;;;;;5027231;28;20492;-67
2022/06/25 04:56:53;;;;;;;12.60;10.90;;;17.70;99.90;;;;;;5026744;28;20559;-67
2022/06/25 04:59:20;;;;;;;15.17;10.00;;;17.80;99.90;;;;;;5032032;28;20505;-67
2022/06/25 05:01:47;;;;;;;10.30;9.23;;;17.90;99.90;;;;;;5033093;28;20533;-67
2022/06/25 05:04:16;;;;;;;19.60;9.90;;;17.90;99.90;;;;;;5032500;28;20471;-66
2022/06/25 05:06:44;;;;;;;14.90;10.63;;;17.90;99.90;;;;;;5033127;28;20862;-67
2022/06/25 05:09:11;;;;;;;14.60;10.10;;;18.00;99.90;;;;;;5032826;28;20491;-67
2022/06/25 05:11:38;;;;;;;10.83;9.80;;;18.10;99.90;;;;;;5032948;28;20467;-66
2022/06/25 05:14:05;;;;;;;11.70;9.70;;;18.20;99.90;;;;;;5032331;28;20499;-66
2022/06/25 05:16:32;;;;;;;13.43;10.47;;;18.30;99.90;;;;;;5032854;28;21204;-67
2022/06/25 05:18:59;;;;;;;15.90;11.07;;;18.30;99.90;;;;;;5032459;28;20462;-68
2022/06/25 05:21:27;;;;;;;17.30;10.47;;;18.30;99.90;;;;;;5032038;28;20451;-67
2022/06/25 05:23:54;;;;;;;13.47;10.20;;;18.30;99.90;;;;;;5032320;28;20491;-66
2022/06/25 05:26:21;;;;;;;17.83;10.83;;;18.40;99.90;;;;;;5032428;28;20473;-68
2022/06/25 05:28:47;;;;;;;11.13;10.10;;;18.50;99.90;;;;;;5032514;28;20471;-67
2022/06/25 05:31:15;;;;;;;9.53;8.93;;;18.80;99.90;;;;;;5032401;28;20469;-66
2022/06/25 05:33:41;;;;;;;10.00;9.07;;;18.90;99.90;;;;;;5030775;28;20993;-67
2022/06/25 05:36:08;;;;;;;11.30;10.00;;;19.10;99.90;;;;;;5031556;28;20455;-66
2022/06/25 05:38:36;;;;;;;10.00;9.13;;;19.20;99.90;;;;;;5051391;28;20955;-67
2022/06/25 05:41:08;;;;;;;10.40;9.50;;;19.20;99.90;;;;;;5053834;28;20459;-67
2022/06/25 05:43:35;;;;;;;10.50;9.60;;;19.20;99.90;;;;;;5039824;28;20455;-67
2022/06/25 05:46:02;;;;;;;10.50;9.80;;;19.30;99.90;;;;;;5031609;28;20496;-67
2022/06/25 05:48:28;;;;;;;10.20;9.53;;;19.40;99.90;;;;;;5032569;28;20514;-67
2022/06/25 05:50:56;;;;;;;10.60;10.10;;;19.30;99.90;;;;;;5032763;28;20521;-66
2022/06/25 05:53:23;;;;;;;11.90;10.63;;;19.40;99.90;;;;;;5031003;28;21088;-66
2022/06/25 05:55:52;;;;;;;10.60;10.00;;;19.50;99.90;;;;;;5032040;28;20491;-66
2022/06/25 05:58:20;;;;;;;11.33;10.63;;;19.70;99.90;;;;;;5031795;28;20459;-67
2022/06/25 06:00:47;;;;;;;12.60;11.30;;;19.80;99.90;;;;;;5028361;28;21351;-67
2022/06/25 06:03:14;;;;;;;11.80;11.00;;;19.90;99.90;;;;;;5029721;28;20467;-67
2022/06/25 06:05:41;;;;;;;12.60;11.17;;;20.00;99.90;;;;;;5029492;28;21325;-68
2022/06/25 06:08:08;;;;;;;11.37;10.77;;;20.00;99.90;;;;;;5026050;28;21062;-66
2022/06/25 06:10:35;;;;;;;10.57;9.87;;;20.00;99.90;;;;;;5028242;28;20484;-67
2022/06/25 06:13:03;;;;;;;11.30;10.70;;;20.10;99.90;;;;;;5028944;28;20491;-66
2022/06/25 06:15:30;;;;;;;11.57;10.77;;;20.10;99.90;;;;;;5029353;28;20506;-66
2022/06/25 06:17:57;;;;;;;12.03;11.13;;;20.20;99.90;;;;;;5029041;28;20476;-67
2022/06/25 06:20:24;;;;;;;11.80;10.90;;;20.20;99.90;;;;;;5029212;28;20846;-68
2022/06/25 06:22:51;;;;;;;12.27;11.53;;;20.20;99.90;;;;;;5029362;28;20522;-68
2022/06/25 06:25:18;;;;;;;12.73;11.40;;;20.20;99.90;;;;;;5029111;28;20486;-67
2022/06/25 06:27:44;;;;;;;12.00;11.30;;;20.40;99.90;;;;;;5029224;28;20486;-66
2022/06/25 06:30:13;;;;;;;12.53;11.87;;;20.30;99.90;;;;;;5028848;28;20969;-66
2022/06/25 06:32:40;;;;;;;13.90;12.00;;;20.40;99.90;;;;;;5048511;28;20467;-66
2022/06/25 06:35:08;;;;;;;12.53;11.60;;;20.50;99.90;;;;;;5052411;28;20471;-65
2022/06/25 06:37:36;;;;;;;13.10;12.20;;;20.60;99.90;;;;;;5052333;28;20969;-65
2022/06/25 06:40:04;;;;;;;13.10;12.30;;;20.70;99.90;;;;;;5056225;28;20464;-67
2022/06/25 06:42:31;;;;;;;12.90;12.00;;;20.70;99.90;;;;;;5041969;28;20466;-65
2022/06/25 06:44:57;;;;;;;12.97;12.07;;;20.80;99.90;;;;;;5027994;28;21021;-67
2022/06/25 06:47:26;;;;;;;12.67;12.00;;;20.80;99.90;;;;;;5029249;28;20922;-67
2022/06/25 06:49:52;;;;;;;13.33;12.33;;;20.90;99.90;;;;;;5027588;28;20482;-66
2022/06/25 06:52:19;;;;;;;12.50;11.73;;;20.80;99.90;;;;;;5027530;28;20877;-66
2022/06/25 06:54:46;;;;;;;13.10;12.40;;;20.80;99.90;;;;;;5027442;28;20494;-66
2022/06/25 06:57:14;;;;;;;12.30;11.60;;;20.90;99.90;;;;;;5027973;28;20464;-66
2022/06/25 06:59:41;;;;;;;12.87;11.70;;;20.80;99.90;;;;;;5028287;28;20475;-68
2022/06/25 07:02:08;;;;;;;13.03;11.97;;;20.90;99.90;;;;;;5027795;28;20843;-67
2022/06/25 07:04:36;;;;;;;12.67;12.07;;;21.00;99.90;;;;;;5028666;28;20479;-66
2022/06/25 07:07:04;;;;;;;13.40;12.40;;;21.00;99.90;;;;;;5029160;28;20464;-66
2022/06/25 07:09:30;;;;;;;13.03;12.30;;;20.90;99.90;;;;;;5028484;28;20479;-67
2022/06/25 07:11:57;;;;;;;12.50;11.60;;;21.10;99.90;;;;;;5028114;28;20463;-66
2022/06/25 07:14:24;;;;;;;12.07;11.50;;;21.20;99.90;;;;;;5028949;28;20837;-67
2022/06/25 07:16:51;;;;;;;12.53;11.60;;;21.30;99.90;;;;;;5028106;28;20804;-67
2022/06/25 07:19:18;;;;;;;12.00;11.40;;;21.20;99.90;;;;;;5029715;28;20463;-68
2022/06/25 07:21:46;;;;;;;13.13;11.97;;;21.20;99.90;;;;;;5029816;28;20827;-67
2022/06/25 07:24:13;;;;;;;13.30;12.50;;;21.40;99.90;;;;;;5055504;28;20836;-67
2022/06/25 07:26:40;;;;;;;13.97;13.00;;;21.60;99.90;;;;;;5023093;28;20460;-67
2022/06/25 07:29:07;;;;;;;14.03;12.57;;;21.60;99.90;;;;;;5026795;28;20472;-68
2022/06/25 07:31:34;;;;;;;13.37;12.50;;;21.70;99.90;;;;;;5028119;28;20475;-67
2022/06/25 07:34:01;;;;;;;13.30;12.40;;;21.80;99.90;;;;;;5027510;28;20459;-67
2022/06/25 07:36:28;;;;;;;13.10;12.33;;;21.90;99.90;;;;;;5027357;28;20495;-67
2022/06/25 07:38:57;;;;;;;13.47;12.60;;;21.90;99.90;;;;;;5026926;28;20542;-67
2022/06/25 07:41:24;;;;;;;13.73;12.93;;;22.10;99.90;;;;;;5027279;28;20464;-68
2022/06/25 07:43:51;;;;;;;13.17;12.37;;;22.20;99.90;;;;;;5026174;28;20937;-67
2022/06/25 07:46:17;;;;;;;13.50;12.70;;;22.20;99.90;;;;;;5022892;28;20474;-67
2022/06/25 07:48:44;;;;;;;13.77;12.77;;;22.20;99.90;;;;;;5023301;28;20471;-68
2022/06/25 07:53:57;;;;;;;13.07;12.37;;;22.30;99.90;;;;;;5024733;28;20467;-67
2022/06/25 07:56:24;;;;;;;13.60;12.60;;;22.50;99.90;;;;;;5025177;28;20495;-66
2022/06/25 07:58:51;;;;;;;13.07;12.37;;;22.60;99.90;;;;;;5026636;28;20471;-67
2022/06/25 08:01:17;;;;;;;13.07;12.27;;;22.90;99.90;;;;;;5037512;28;20452;-67
2022/06/25 08:03:46;;;;;;;13.90;12.80;;;23.20;99.90;;;;;;5055623;28;20487;-67
2022/06/25 08:06:13;;;;;;;13.63;13.03;;;23.80;99.90;;;;;;5053167;28;20520;-67
2022/06/25 08:08:40;;;;;;;14.50;13.27;;;24.50;99.90;;;;;;5042956;28;20492;-69
2022/06/25 08:11:09;;;;;;;15.03;14.03;;;25.30;99.90;;;;;;5027796;28;20479;-68
2022/06/25 08:13:37;;;;;;;13.80;13.00;;;25.90;99.90;;;;;;5028041;28;20465;-68
2022/06/25 08:16:04;;;;;;;14.50;13.47;;;25.70;99.90;;;;;;5027883;28;20498;-68
2022/06/25 08:18:32;;;;;;;14.57;13.80;;;25.70;99.90;;;;;;5026774;28;20493;-68
2022/06/25 08:20:59;;;;;;;14.63;13.67;;;26.30;99.90;;;;;;5027767;28;20565;-68
2022/06/25 08:23:26;;;;;;;13.50;12.90;;;26.50;99.90;;;;;;5027509;28;20483;-67
2022/06/25 08:25:53;;;;;;;14.87;13.93;;;27.20;99.90;;;;;;5026756;28;21581;-68
2022/06/25 08:28:22;;;;;;;14.07;13.47;;;26.80;99.90;;;;;;5026458;28;20476;-68
2022/06/25 08:30:49;;;;;;;15.50;13.97;;;27.00;99.90;;;;;;5028153;28;20797;-67
2022/06/25 08:33:16;;;;;;;15.00;14.17;;;26.40;99.90;;;;;;5027125;28;20455;-70
2022/06/25 08:35:43;;;;;;;14.80;14.10;;;27.10;99.90;;;;;;5027548;28;20511;-68
2022/06/25 08:38:10;;;;;;;15.83;14.83;;;28.00;99.90;;;;;;5027443;28;20468;-67
2022/06/25 08:40:39;;;;;;;16.47;15.40;;;28.00;99.90;;;;;;5024724;28;20478;-68
2022/06/25 08:43:06;;;;;;;16.10;14.80;;;28.00;99.90;;;;;;5026564;28;20479;-67
2022/06/25 08:45:35;;;;;;;15.97;15.17;;;27.30;99.10;;;;;;5027437;28;20470;-68
2022/06/25 08:48:02;;;;;;;14.93;14.13;;;27.50;99.10;;;;;;5027258;28;20444;-67
2022/06/25 08:50:29;;;;;;;16.10;14.87;;;27.40;98.90;;;;;;5026498;28;20839;-67
2022/06/25 08:52:56;;;;;;;15.30;14.40;;;27.60;99.00;;;;;;5026711;28;21349;-67
2022/06/25 08:55:31;;;;;;;15.20;14.10;;;27.80;98.90;;;;;;5026020;28;20540;-67
2022/06/25 08:57:59;;;;;;;15.00;14.20;;;27.90;98.10;;;;;;5026360;28;20466;-69
2022/06/25 09:00:26;;;;;;;14.70;13.90;;;28.10;97.90;;;;;;5027559;28;20473;-67
2022/06/25 09:02:55;;;;;;;15.27;14.57;;;28.40;97.20;;;;;;5027542;28;21096;-67
2022/06/25 09:05:28;;;;;;;15.43;14.40;;;28.70;97.10;;;;;;5026666;28;20459;-67
2022/06/25 09:07:56;;;;;;;15.27;14.37;;;28.70;96.50;;;;;;5026358;28;20465;-65
2022/06/25 09:10:25;;;;;;;15.20;14.20;;;28.10;97.60;;;;;;5026867;28;20483;-67
2022/06/25 09:12:52;;;;;;;15.10;14.30;;;28.60;96.60;;;;;;5027711;28;20839;-68
2022/06/25 09:15:20;;;;;;;15.20;14.40;;;27.90;96.30;;;;;;5026241;28;20582;-67
2022/06/25 09:17:48;;;;;;;17.57;15.90;;;28.10;97.10;;;;;;5026554;28;21278;-66
2022/06/25 09:20:17;;;;;;;15.67;14.80;;;28.30;96.10;;;;;;5024680;28;20464;-68
2022/06/25 09:22:54;;;;;;;15.70;14.80;;;28.80;96.20;;;;;;5024391;28;20495;-67
2022/06/25 09:25:25;;;;;;;14.73;14.00;;;29.40;95.50;;;;;;5017044;28;20474;-66
2022/06/25 09:27:52;;;;;;;15.40;14.60;;;29.00;92.90;;;;;;5019052;28;20467;-67
2022/06/25 09:30:20;;;;;;;15.63;14.63;;;29.60;92.60;;;;;;5018591;28;20990;-68
2022/06/25 09:32:49;;;;;;;15.43;14.40;;;30.20;91.50;;;;;;5020146;28;20989;-67
2022/06/25 09:35:30;;;;;;;15.57;14.47;;;29.90;91.80;;;;;;5020766;28;20480;-67
2022/06/25 09:38:03;;;;;;;15.90;14.70;;;29.70;91.70;;;;;;5020258;28;20475;-67
2022/06/25 09:40:31;;;;;;;15.27;14.37;;;30.50;90.30;;;;;;5021652;28;20471;-68
2022/06/25 09:42:58;;;;;;;15.87;15.17;;;30.80;89.20;;;;;;5021485;28;20471;-67
2022/06/25 09:45:26;;;;;;;15.13;14.17;;;31.30;88.90;;;;;;5025131;28;20467;-68
2022/06/25 09:47:55;;;;;;;15.00;14.10;;;30.60;86.50;;;;;;5024591;28;20507;-69
2022/06/25 09:50:23;;;;;;;14.90;14.10;;;29.10;90.10;;;;;;5022600;28;20498;-68
2022/06/25 09:52:53;;;;;;;15.57;14.20;;;29.60;90.20;;;;;;5027881;28;20472;-68
2022/06/25 09:55:21;;;;;;;16.03;15.20;;;30.40;89.00;;;;;;5030709;28;20483;-68
2022/06/25 09:57:49;;;;;;;15.70;14.90;;;30.70;87.20;;;;;;5029866;28;20451;-68
2022/06/25 10:00:17;;;;;;;15.30;14.40;;;31.40;83.80;;;;;;5029722;28;20824;-69
2022/06/25 10:02:46;;;;;;;15.80;14.87;;;31.50;84.90;;;;;;5030130;28;21001;-69
2022/06/25 10:05:13;;;;;;;15.90;14.80;;;31.40;78.80;;;;;;5029569;28;20474;-69
2022/06/25 10:08:04;;;;;;;15.10;14.30;;;30.20;83.60;;;;;;5029507;28;20478;-68
2022/06/25 10:10:34;;;;;;;16.37;15.37;;;29.70;83.10;;;;;;5029479;28;20487;-70
2022/06/25 10:13:02;;;;;;;15.37;14.37;;;29.30;84.00;;;;;;5029224;28;20467;-68
2022/06/25 10:15:30;;;;;;;15.53;14.43;;;29.40;85.60;;;;;;5029668;28;21157;-69
2022/06/25 10:17:57;;;;;;;14.77;13.87;;;29.20;86.10;;;;;;5029740;28;20467;-68
2022/06/25 10:20:24;;;;;;;16.13;15.23;;;29.30;87.50;;;;;;5029624;28;20490;-70
2022/06/25 10:22:54;;;;;;;18.93;14.47;;;29.60;83.60;;;;;;5028786;28;20488;-70
2022/06/25 10:25:24;;;;;;;16.10;14.97;;;29.40;85.00;;;;;;5029901;28;20459;-69
2022/06/25 10:28:03;;;;;;;16.23;15.10;;;30.20;84.80;;;;;;5058529;28;20456;-69
2022/06/25 10:30:42;;;;;;;17.03;16.00;;;30.40;83.90;;;;;;5059652;28;20469;-68
2022/06/25 10:33:09;;;;;;;15.53;14.50;;;30.00;83.50;;;;;;5030221;28;20997;-69
2022/06/25 10:35:39;;;;;;;15.33;14.53;;;29.20;85.70;;;;;;5028930;28;20530;-69
2022/06/25 10:38:09;;;;;;;15.27;14.30;;;28.80;87.30;;;;;;5028732;28;20954;-69
2022/06/25 10:40:48;;;;;;;15.77;14.87;;;28.70;85.20;;;;;;5029308;28;20518;-68
2022/06/25 10:43:42;;;;;;;16.37;15.40;;;28.70;86.40;;;;;;5027176;28;20460;-69
2022/06/25 10:46:23;;;;;;;15.93;14.87;;;28.30;88.10;;;;;;4979869;28;20467;-69
2022/06/25 10:48:57;;;;;;;15.57;14.77;;;28.30;89.10;;;;;;5030532;28;20558;-68
2022/06/25 10:51:32;;;;;;;15.10;14.17;;;28.60;88.50;;;;;;5051244;28;20464;-68
2022/06/25 10:54:03;;;;;;;15.20;14.30;;;28.70;88.40;;;;;;5023210;28;20578;-69
2022/06/25 10:56:33;;;;;;;16.73;15.53;;;28.90;89.10;;;;;;5022914;28;20568;-68
2022/06/25 10:59:00;;;;;;;16.37;15.37;;;29.30;86.80;;;;;;5023485;28;22540;-69
2022/06/25 11:01:35;;;;;;;16.03;15.10;;;29.70;86.40;;;;;;5023369;28;20476;-68
2022/06/25 11:04:10;;;;;;;16.50;15.40;;;29.70;81.40;;;;;;5022462;28;20471;-68
2022/06/25 11:06:40;;;;;;;16.60;15.70;;;28.90;82.70;;;;;;5021441;28;20463;-68
2022/06/25 11:09:12;;;;;;;16.67;15.53;;;29.50;83.60;;;;;;5022301;28;20497;-69
2022/06/25 11:11:39;;;;;;;15.67;14.77;;;29.60;83.30;;;;;;5022284;28;20500;-70
2022/06/25 11:14:14;;;;;;;15.90;15.00;;;29.80;83.40;;;;;;5022247;28;21218;-68
2022/06/25 11:16:41;;;;;;;16.57;15.27;;;29.80;82.00;;;;;;5022832;28;20931;-70
2022/06/25 11:19:08;;;;;;;16.27;15.20;;;29.80;82.00;;;;;;5022506;28;20583;-71
2022/06/25 11:21:37;;;;;;;15.60;14.70;;;29.90;83.80;;;;;;5022150;28;20974;-67
2022/06/25 11:24:15;;;;;;;15.97;15.13;;;29.50;82.70;;;;;;5028590;28;21092;-69
2022/06/25 11:29:33;;;;;;;15.73;14.83;;;30.10;85.30;;;;;;5038835;28;20836;-68
2022/06/25 11:32:00;;;;;;;16.13;15.17;;;30.40;80.90;;;;;;5060316;28;20471;-67
2022/06/25 11:34:29;;;;;;;16.13;15.10;;;31.10;80.70;;;;;;5053967;28;20476;-67
2022/06/25 11:36:58;;;;;;;15.37;14.37;;;30.80;80.00;;;;;;5046091;28;20456;-67
2022/06/25 11:39:26;;;;;;;15.60;14.60;;;31.30;77.90;;;;;;5027736;28;20617;-67
2022/06/25 11:41:53;;;;;;;14.70;14.00;;;31.40;77.90;;;;;;5027224;28;20456;-67
2022/06/25 11:44:20;;;;;;;15.30;14.37;;;31.40;77.00;;;;;;5027350;28;21020;-68
2022/06/25 11:46:48;;;;;;;14.93;14.03;;;31.30;76.10;;;;;;5027700;28;20491;-67
2022/06/25 11:49:16;;;;;;;15.37;14.47;;;31.10;76.00;;;;;;5027810;28;20466;-66
2022/06/25 11:51:48;;;;;;;15.03;14.10;;;31.30;74.80;;;;;;5027267;28;20460;-68
2022/06/25 11:54:16;;;;;;;15.13;14.07;;;31.00;74.00;;;;;;5027114;28;20466;-68
2022/06/25 11:56:53;;;;;;;15.20;14.37;;;30.80;76.00;;;;;;5026416;28;21057;-66
2022/06/25 11:59:28;;;;;;;14.73;13.83;;;30.60;75.20;;;;;;5027238;28;21459;-67
2022/06/25 12:01:56;;;;;;;14.47;13.47;;;30.70;75.20;;;;;;5026564;28;21100;-68
2022/06/25 12:04:24;;;;;;;15.27;14.07;;;29.70;76.00;;;;;;5026565;28;20470;-67
2022/06/25 12:06:52;;;;;;;15.00;13.90;;;29.30;79.80;;;;;;5027061;28;20487;-67
2022/06/25 12:09:20;;;;;;;14.60;13.80;;;28.90;82.80;;;;;;5027174;28;20505;-67
2022/06/25 12:11:55;;;;;;;15.77;14.70;;;29.00;83.60;;;;;;5027369;28;21011;-68
2022/06/25 12:14:26;;;;;;;14.37;13.47;;;29.40;82.70;;;;;;5026430;28;20569;-66
2022/06/25 12:16:54;;;;;;;14.07;13.40;;;29.10;82.20;;;;;;5027151;28;20472;-67
2022/06/25 12:19:22;;;;;;;13.93;13.23;;;29.50;81.90;;;;;;5026377;28;20517;-67
2022/06/25 12:21:49;;;;;;;15.23;14.00;;;29.50;83.00;;;;;;5026781;28;20462;-66
2022/06/25 12:24:19;;;;;;;14.23;13.40;;;29.90;80.50;;;;;;5027144;28;20491;-69
2022/06/25 12:26:52;;;;;;;13.87;13.23;;;30.20;78.70;;;;;;5027132;28;20582;-66
2022/06/25 12:29:22;;;;;;;13.77;12.87;;;30.60;79.30;;;;;;5026774;28;20455;-68
2022/06/25 12:31:58;;;;;;;14.20;13.40;;;30.00;78.40;;;;;;5027245;28;20467;-67
2022/06/25 12:34:26;;;;;;;13.93;13.13;;;30.80;75.40;;;;;;5027431;28;20474;-67
2022/06/25 12:36:54;;;;;;;12.93;12.13;;;30.30;76.80;;;;;;5026584;28;20466;-67
2022/06/25 12:39:36;;;;;;;14.47;13.47;;;30.50;76.30;;;;;;5027209;28;21113;-66
2022/06/25 12:42:08;;;;;;;14.40;13.60;;;30.10;75.70;;;;;;5026868;28;20576;-66
2022/06/25 12:44:38;;;;;;;13.70;13.00;;;29.60;76.50;;;;;;5026993;28;20568;-67
2022/06/25 12:47:07;;;;;;;14.23;13.43;;;29.60;76.90;;;;;;5026381;28;20482;-66
2022/06/25 12:49:46;;;;;;;14.23;13.53;;;29.50;80.10;;;;;;5026818;28;20462;-66